Time;durP1;ratioP1;P1;durP2;ratioP2;P2;SDS_P1;SDS_P2;PMS_P1;PMS_P2;Temp;Humidity;BMP_temperature;BMP_pressure;BME280_temperature;BME280_humidity;BME280_pressure;Samples;Min_cycle;Max_cycle;Signal;HPM_P1;HPM_P2
2023/12/03 00:03:20;;;;;;;4.60;4.20;;;19.70;44.40;;;;;;222359;1263;25423;-58
2023/12/03 00:08:24;;;;;;;4.30;3.90;;;19.70;44.30;;;;;;222838;1268;24266;-57
2023/12/03 00:13:44;;;;;;;4.50;4.10;;;19.60;44.70;;;;;;222443;1261;22588;-58
2023/12/03 00:18:48;;;;;;;4.70;4.30;;;19.50;44.60;;;;;;222513;1268;23882;-57
2023/12/03 00:23:53;;;;;;;4.60;4.20;;;19.90;44.20;;;;;;222004;1266;25262;-57
2023/12/03 00:28:57;;;;;;;4.10;3.80;;;20.20;43.50;;;;;;222485;1254;25284;-56
2023/12/03 00:34:05;;;;;;;4.00;3.70;;;20.60;43.00;;;;;;222380;1263;25724;-56
2023/12/03 00:39:11;;;;;;;4.80;4.40;;;20.70;42.60;;;;;;222526;1263;25393;-58
2023/12/03 00:44:15;;;;;;;4.00;3.70;;;20.70;42.80;;;;;;222691;1261;22643;-57
2023/12/03 00:49:19;;;;;;;4.00;3.50;;;20.60;43.30;;;;;;222507;1269;22618;-56
2023/12/03 00:54:24;;;;;;;4.00;3.70;;;20.50;43.20;;;;;;221988;1269;25400;-58
2023/12/03 00:59:29;;;;;;;3.90;3.60;;;20.30;43.60;;;;;;222641;1264;23741;-57
2023/12/03 01:04:33;;;;;;;4.00;3.70;;;20.20;43.70;;;;;;222880;1263;22564;-58
2023/12/03 01:09:37;;;;;;;3.40;3.20;;;20.00;43.90;;;;;;222631;1269;24375;-56
2023/12/03 01:14:42;;;;;;;3.80;3.50;;;20.00;43.90;;;;;;222325;1268;25460;-58
2023/12/03 01:19:47;;;;;;;3.40;3.10;;;19.90;44.10;;;;;;222380;1264;25485;-58
2023/12/03 01:24:51;;;;;;;4.60;3.60;;;19.80;44.30;;;;;;222592;1269;23890;-57
2023/12/03 01:29:55;;;;;;;3.40;3.20;;;19.80;44.10;;;;;;222629;1268;23876;-56
2023/12/03 01:34:59;;;;;;;3.80;3.50;;;19.80;44.30;;;;;;222672;1266;22518;-59
2023/12/03 01:40:04;;;;;;;3.40;3.10;;;19.80;44.20;;;;;;222599;1247;22530;-56
2023/12/03 01:45:09;;;;;;;3.90;3.60;;;19.60;44.40;;;;;;222793;1257;24039;-57
2023/12/03 01:50:15;;;;;;;3.30;3.10;;;19.50;44.60;;;;;;222788;1266;22602;-57
2023/12/03 01:55:20;;;;;;;3.10;2.90;;;19.40;44.70;;;;;;222984;1260;25474;-58
2023/12/03 02:00:24;;;;;;;3.00;2.80;;;19.60;44.50;;;;;;222869;1266;24050;-57
2023/12/03 02:05:28;;;;;;;3.20;2.90;;;20.10;43.80;;;;;;222423;1263;22587;-57
2023/12/03 02:10:33;;;;;;;3.60;3.30;;;20.40;43.40;;;;;;222888;1265;25471;-57
2023/12/03 02:15:37;;;;;;;3.10;2.80;;;20.70;42.60;;;;;;222539;1268;25207;-57
2023/12/03 02:20:42;;;;;;;2.90;2.70;;;20.80;42.50;;;;;;222922;1248;25607;-56
2023/12/03 02:25:48;;;;;;;3.70;3.40;;;20.60;42.80;;;;;;222807;1244;22747;-57
2023/12/03 02:30:53;;;;;;;3.10;2.90;;;20.50;43.00;;;;;;222637;1268;23921;-59
2023/12/03 02:35:58;;;;;;;3.10;2.90;;;20.40;43.10;;;;;;222572;1266;22514;-57
2023/12/03 02:41:03;;;;;;;3.10;2.80;;;20.30;43.40;;;;;;222691;1263;22511;-57
2023/12/03 02:46:07;;;;;;;2.90;2.70;;;20.00;43.70;;;;;;222618;1266;22647;-56
2023/12/03 02:51:12;;;;;;;3.20;2.90;;;20.00;44.40;;;;;;222619;1265;22762;-57
2023/12/03 02:56:17;;;;;;;3.10;2.90;;;19.90;44.10;;;;;;222774;1265;24170;-57
2023/12/03 03:01:21;;;;;;;2.50;2.30;;;19.90;44.10;;;;;;222611;1263;25072;-57
2023/12/03 03:06:25;;;;;;;2.60;2.40;;;19.80;44.10;;;;;;222335;1263;22537;-57
2023/12/03 03:11:30;;;;;;;3.00;2.80;;;19.80;44.00;;;;;;222546;1249;22528;-57
2023/12/03 03:16:35;;;;;;;3.00;2.80;;;19.80;44.10;;;;;;222541;1267;22511;-56
2023/12/03 03:21:39;;;;;;;2.60;2.40;;;19.70;44.20;;;;;;222468;1254;22571;-57
2023/12/03 03:26:44;;;;;;;2.40;2.30;;;19.60;44.80;;;;;;223229;1268;24222;-57
2023/12/03 03:31:48;;;;;;;2.60;2.40;;;19.50;44.50;;;;;;222692;1269;22606;-58
2023/12/03 03:36:52;;;;;;;3.20;3.00;;;19.40;44.60;;;;;;222535;1268;22504;-58
2023/12/03 03:41:56;;;;;;;2.90;2.70;;;19.90;44.10;;;;;;222864;1261;24558;-57
2023/12/03 03:47:00;;;;;;;2.90;2.60;;;20.20;43.40;;;;;;222422;1264;23396;-56
2023/12/03 03:52:05;;;;;;;2.40;2.30;;;20.60;42.80;;;;;;222828;1268;22515;-57
2023/12/03 03:57:09;;;;;;;2.60;2.40;;;20.70;42.30;;;;;;223246;1257;24607;-57
2023/12/03 04:02:14;;;;;;;2.40;2.20;;;20.80;42.40;;;;;;222861;1257;22518;-57
2023/12/03 04:07:18;;;;;;;3.50;2.80;;;20.60;43.00;;;;;;222419;1268;23603;-56
2023/12/03 04:12:23;;;;;;;2.60;2.40;;;20.40;43.00;;;;;;222654;1268;23326;-57
2023/12/03 04:17:28;;;;;;;2.10;2.00;;;20.30;43.20;;;;;;222754;1268;23911;-57
2023/12/03 04:22:34;;;;;;;2.30;2.20;;;20.20;43.40;;;;;;223028;1260;26634;-57
2023/12/03 04:27:38;;;;;;;2.50;2.20;;;20.20;43.30;;;;;;223133;1247;22652;-58
2023/12/03 04:32:43;;;;;;;2.30;2.20;;;20.10;43.50;;;;;;222476;1267;22518;-58
2023/12/03 04:37:47;;;;;;;2.40;2.20;;;19.90;43.90;;;;;;222505;1268;25462;-57
2023/12/03 04:42:51;;;;;;;2.40;2.20;;;19.80;43.90;;;;;;222647;1268;25323;-57
2023/12/03 04:47:55;;;;;;;2.20;2.00;;;19.80;44.10;;;;;;222765;1268;22672;-56
2023/12/03 04:53:00;;;;;;;2.70;2.50;;;19.70;44.00;;;;;;222438;1263;22547;-58
2023/12/03 04:58:04;;;;;;;2.30;2.10;;;19.60;44.10;;;;;;222323;1268;22511;-58
2023/12/03 05:03:08;;;;;;;1.90;1.70;;;19.60;44.20;;;;;;222431;1268;22627;-57
2023/12/03 05:08:13;;;;;;;2.00;1.90;;;19.50;43.90;;;;;;222607;1268;23882;-57
2023/12/03 05:13:17;;;;;;;2.40;2.20;;;19.40;44.50;;;;;;222936;1268;24334;-57
2023/12/03 05:18:21;;;;;;;2.20;2.00;;;19.40;44.60;;;;;;222574;1267;23785;-57
2023/12/03 05:23:26;;;;;;;2.40;2.20;;;19.30;44.70;;;;;;222719;1253;22518;-56
2023/12/03 05:28:30;;;;;;;2.40;2.20;;;19.20;44.60;;;;;;222875;1267;22768;-57
2023/12/03 05:33:34;;;;;;;2.00;1.90;;;19.20;44.90;;;;;;222443;1268;22533;-58
2023/12/03 05:38:39;;;;;;;2.10;2.00;;;19.10;45.20;;;;;;222660;1266;24265;-57
2023/12/03 05:43:43;;;;;;;2.20;2.10;;;19.10;44.90;;;;;;222689;1268;22766;-56
2023/12/03 05:48:47;;;;;;;2.10;2.00;;;19.00;45.10;;;;;;222956;1268;24242;-58
2023/12/03 05:53:52;;;;;;;2.20;2.10;;;19.00;45.10;;;;;;222587;1257;22787;-57
2023/12/03 05:58:57;;;;;;;2.00;1.80;;;19.10;45.20;;;;;;222744;1268;22687;-57
2023/12/03 06:04:06;;;;;;;1.90;1.80;;;19.60;44.40;;;;;;222401;1266;26043;-56
2023/12/03 06:09:11;;;;;;;2.10;1.90;;;20.00;43.30;;;;;;222513;1266;22818;-56
2023/12/03 06:14:16;;;;;;;1.80;1.70;;;20.30;43.10;;;;;;222570;1263;22982;-56
2023/12/03 06:19:21;;;;;;;2.00;1.90;;;20.40;42.70;;;;;;222140;1267;287561;-56
2023/12/03 06:24:26;;;;;;;2.10;2.00;;;20.30;43.20;;;;;;222405;1257;24328;-58
2023/12/03 06:29:30;;;;;;;1.70;1.60;;;20.20;42.80;;;;;;222515;1268;22525;-56
2023/12/03 06:34:34;;;;;;;2.00;1.90;;;20.20;43.30;;;;;;222727;1268;22517;-59
2023/12/03 06:39:39;;;;;;;1.90;1.80;;;20.10;43.20;;;;;;222657;1267;22637;-57
2023/12/03 06:44:43;;;;;;;2.00;1.90;;;19.90;43.50;;;;;;222489;1268;22521;-58
2023/12/03 06:49:48;;;;;;;1.90;1.80;;;19.70;43.60;;;;;;222468;1269;22651;-56
2023/12/03 06:54:53;;;;;;;1.80;1.70;;;19.70;43.50;;;;;;222407;1268;25267;-56
2023/12/03 06:59:57;;;;;;;1.60;1.50;;;19.70;43.70;;;;;;222403;1268;24222;-56
2023/12/03 07:05:02;;;;;;;1.70;1.60;;;19.60;44.60;;;;;;222586;1268;24180;-58
2023/12/03 07:10:07;;;;;;;1.80;1.70;;;19.50;44.00;;;;;;222439;1267;25335;-56
2023/12/03 07:15:13;;;;;;;1.70;1.60;;;19.40;44.30;;;;;;222527;1264;25399;-57
2023/12/03 07:20:20;;;;;;;2.00;1.90;;;19.30;44.30;;;;;;222223;1267;23559;-55
2023/12/03 07:25:25;;;;;;;1.70;1.60;;;19.20;44.40;;;;;;222535;1267;22626;-57
2023/12/03 07:30:30;;;;;;;1.70;1.60;;;19.20;44.90;;;;;;222737;1266;24223;-56
2023/12/03 07:35:34;;;;;;;1.80;1.70;;;19.20;44.60;;;;;;222561;1269;25421;-58
2023/12/03 07:40:38;;;;;;;1.70;1.60;;;19.10;44.80;;;;;;222569;1265;22683;-57
2023/12/03 07:45:43;;;;;;;1.70;1.60;;;19.00;44.80;;;;;;222090;1264;22517;-57
2023/12/03 07:50:47;;;;;;;1.70;1.60;;;19.00;44.80;;;;;;222729;1267;22667;-57
2023/12/03 07:55:51;;;;;;;1.70;1.60;;;19.10;44.60;;;;;;222454;1257;22623;-57
2023/12/03 08:00:58;;;;;;;1.90;1.80;;;19.70;43.80;;;;;;222518;1264;22535;-56
2023/12/03 08:06:02;;;;;;;1.90;1.80;;;20.10;43.00;;;;;;222572;1253;24378;-56
2023/12/03 08:11:07;;;;;;;1.50;1.40;;;20.30;42.50;;;;;;222693;1266;22620;-57
2023/12/03 08:16:12;;;;;;;1.90;1.70;;;20.40;42.70;;;;;;222961;1265;22622;-58
2023/12/03 08:21:16;;;;;;;1.70;1.60;;;20.20;42.70;;;;;;222939;1253;23885;-57
2023/12/03 08:26:20;;;;;;;1.40;1.30;;;20.20;42.90;;;;;;222794;1260;24185;-57
2023/12/03 08:31:25;;;;;;;2.50;1.40;;;20.10;43.00;;;;;;222473;1267;22864;-57
2023/12/03 08:36:31;;;;;;;1.60;1.50;;;19.90;43.50;;;;;;222514;1244;22511;-59
2023/12/03 08:41:36;;;;;;;1.50;1.40;;;19.90;43.40;;;;;;222437;1268;22646;-57
2023/12/03 08:46:40;;;;;;;1.60;1.50;;;19.80;43.50;;;;;;222762;1264;22552;-56
2023/12/03 08:51:44;;;;;;;1.40;1.30;;;19.70;44.00;;;;;;222876;1257;24231;-57
2023/12/03 08:56:49;;;;;;;1.30;1.20;;;19.60;43.70;;;;;;222796;1268;22530;-58
2023/12/03 09:01:53;;;;;;;1.70;1.60;;;19.50;43.90;;;;;;222623;1267;22850;-57
2023/12/03 09:06:57;;;;;;;1.40;1.30;;;19.40;44.20;;;;;;222607;1268;24202;-58
2023/12/03 09:12:03;;;;;;;1.80;1.70;;;19.30;44.30;;;;;;222487;1264;22621;-58
2023/12/03 09:17:07;;;;;;;1.60;1.50;;;19.20;44.30;;;;;;222723;1264;22649;-57
2023/12/03 09:22:11;;;;;;;1.30;1.30;;;19.20;44.30;;;;;;222968;1268;25321;-56
2023/12/03 09:27:16;;;;;;;1.50;1.40;;;19.10;44.40;;;;;;222214;1257;24274;-56
2023/12/03 09:32:20;;;;;;;1.50;1.40;;;19.20;44.60;;;;;;222486;1260;22640;-60
2023/12/03 09:37:24;;;;;;;1.50;1.40;;;19.00;44.60;;;;;;222342;1257;22523;-55
2023/12/03 09:42:34;;;;;;;1.90;1.80;;;19.20;44.40;;;;;;222533;1268;22515;-57
2023/12/03 09:47:45;;;;;;;1.80;1.70;;;19.70;43.60;;;;;;222802;1268;22530;-57
2023/12/03 09:52:55;;;;;;;1.40;1.30;;;20.20;42.80;;;;;;222577;1267;22535;-57
2023/12/03 09:58:01;;;;;;;1.60;1.50;;;20.40;42.90;;;;;;222759;1269;24185;-58
2023/12/03 10:03:06;;;;;;;1.40;1.30;;;20.30;42.50;;;;;;222484;1266;23156;-57
2023/12/03 10:08:12;;;;;;;1.20;1.20;;;20.00;43.30;;;;;;223217;1267;24222;-57
2023/12/03 10:13:18;;;;;;;1.20;1.20;;;19.90;43.80;;;;;;222814;1268;25396;-57
2023/12/03 10:18:22;;;;;;;1.40;1.30;;;19.70;44.10;;;;;;222892;1255;22544;-58
2023/12/03 10:23:27;;;;;;;1.50;1.40;;;19.60;44.40;;;;;;222459;1267;22704;-58
2023/12/03 10:28:33;;;;;;;1.50;1.40;;;19.70;44.50;;;;;;222376;1264;24222;-58
2023/12/03 10:33:38;;;;;;;1.40;1.30;;;19.60;44.60;;;;;;222482;1253;24211;-57
2023/12/03 10:38:43;;;;;;;1.70;1.60;;;19.60;44.80;;;;;;222519;1257;25399;-58
2023/12/03 10:43:47;;;;;;;1.20;1.20;;;19.60;44.70;;;;;;222386;1266;24258;-57
2023/12/03 10:48:53;;;;;;;1.40;1.30;;;19.60;44.80;;;;;;222175;1266;23394;-57
2023/12/03 10:53:58;;;;;;;1.80;1.70;;;19.50;45.00;;;;;;222557;1266;22514;-57
2023/12/03 10:59:11;;;;;;;1.20;1.20;;;19.60;45.40;;;;;;222540;1268;22486;-58
2023/12/03 11:04:49;;;;;;;1.50;1.40;;;19.50;45.50;;;;;;222408;1269;24358;-58
2023/12/03 11:09:54;;;;;;;1.40;1.30;;;19.50;45.20;;;;;;222681;1266;22522;-60
2023/12/03 11:14:59;;;;;;;1.30;1.20;;;19.50;45.50;;;;;;222280;1268;22707;-58
2023/12/03 11:20:32;;;;;;;1.20;1.10;;;19.50;45.20;;;;;;222553;1267;24196;-58
2023/12/03 11:25:55;;;;;;;1.30;1.20;;;19.50;45.30;;;;;;222424;1266;22530;-57
2023/12/03 11:31:00;;;;;;;1.20;1.10;;;19.50;45.10;;;;;;222472;1263;22521;-60
2023/12/03 11:36:04;;;;;;;1.70;1.60;;;19.60;45.40;;;;;;222756;1269;24379;-55
2023/12/03 11:41:08;;;;;;;1.40;1.30;;;19.40;45.20;;;;;;222443;1256;22524;-59
2023/12/03 11:46:13;;;;;;;1.40;1.30;;;19.20;45.80;;;;;;222468;1264;22608;-57
2023/12/03 11:51:18;;;;;;;1.40;1.30;;;19.20;45.50;;;;;;222195;1268;22521;-56
2023/12/03 11:56:23;;;;;;;1.60;1.30;;;19.20;45.40;;;;;;222849;1266;24292;-58
2023/12/03 12:01:29;;;;;;;1.90;1.80;;;19.20;45.40;;;;;;222530;1269;22521;-58
2023/12/03 12:06:34;;;;;;;1.40;1.30;;;19.30;45.40;;;;;;223050;1255;26519;-58
2023/12/03 12:11:39;;;;;;;1.30;1.20;;;19.40;44.90;;;;;;222301;1268;22999;-57
2023/12/03 12:16:45;;;;;;;1.50;1.40;;;19.30;44.90;;;;;;222868;1256;22529;-57
2023/12/03 12:21:54;;;;;;;1.40;1.30;;;19.30;44.90;;;;;;222723;1253;26695;-58
2023/12/03 12:26:58;;;;;;;1.40;1.30;;;19.20;45.00;;;;;;222705;1268;22785;-58
2023/12/03 12:32:04;;;;;;;1.60;1.50;;;19.20;45.20;;;;;;222880;1264;22525;-57
2023/12/03 12:37:10;;;;;;;1.40;1.30;;;19.10;45.40;;;;;;222659;1268;23792;-58
2023/12/03 12:42:24;;;;;;;1.10;1.10;;;19.30;45.00;;;;;;222509;1268;25463;-57
2023/12/03 12:47:37;;;;;;;1.60;1.50;;;19.80;44.40;;;;;;222554;1260;24379;-57
2023/12/03 12:52:56;;;;;;;1.70;1.60;;;20.20;43.30;;;;;;222495;1259;24036;-57
2023/12/03 12:58:08;;;;;;;1.40;1.30;;;20.40;43.00;;;;;;222692;1267;25711;-58
2023/12/03 13:03:14;;;;;;;1.40;1.30;;;20.30;43.20;;;;;;222558;1262;22511;-58
2023/12/03 13:08:20;;;;;;;1.50;1.40;;;20.10;43.50;;;;;;222915;1247;22518;-58
2023/12/03 13:13:25;;;;;;;1.50;1.40;;;19.80;43.80;;;;;;222959;1260;22565;-57
2023/12/03 13:18:30;;;;;;;1.20;1.20;;;19.80;44.10;;;;;;222861;1268;25038;-59
2023/12/03 13:23:36;;;;;;;1.60;1.50;;;19.70;44.60;;;;;;222667;1268;25346;-58
2023/12/03 13:28:43;;;;;;;1.50;1.40;;;19.60;44.30;;;;;;222483;1263;24224;-58
2023/12/03 13:33:47;;;;;;;1.50;1.40;;;19.50;44.50;;;;;;222811;1266;25290;-57
2023/12/03 13:38:52;;;;;;;1.60;1.50;;;19.50;44.40;;;;;;222748;1263;22767;-58
2023/12/03 13:43:57;;;;;;;1.60;1.50;;;19.60;44.40;;;;;;222525;1267;22555;-56
2023/12/03 13:49:03;;;;;;;1.50;1.40;;;19.60;44.20;;;;;;222851;1263;22534;-56
2023/12/03 13:54:08;;;;;;;1.60;1.50;;;19.50;44.30;;;;;;222932;1262;22567;-58
2023/12/03 13:59:12;;;;;;;1.50;1.40;;;19.40;44.60;;;;;;222639;1268;24261;-58
2023/12/03 14:04:17;;;;;;;1.50;1.40;;;19.30;44.60;;;;;;222607;1267;22516;-58
2023/12/03 14:09:21;;;;;;;1.50;1.40;;;19.30;44.70;;;;;;222529;1253;22504;-56
2023/12/03 14:14:26;;;;;;;1.90;1.70;;;19.20;44.80;;;;;;222636;1246;22520;-57
2023/12/03 14:19:32;;;;;;;1.70;1.50;;;19.20;44.80;;;;;;222725;1264;25476;-59
2023/12/03 14:24:37;;;;;;;1.50;1.40;;;19.10;44.40;;;;;;222716;1256;24362;-58
2023/12/03 14:29:41;;;;;;;1.80;1.70;;;19.10;44.90;;;;;;222654;1263;22631;-57
2023/12/03 14:34:46;;;;;;;1.60;1.50;;;19.00;44.90;;;;;;222327;1268;22519;-57
2023/12/03 14:39:51;;;;;;;1.70;1.60;;;19.10;44.90;;;;;;222678;1260;25430;-58
2023/12/03 14:44:55;;;;;;;1.70;1.60;;;19.00;45.30;;;;;;222601;1256;23904;-57
2023/12/03 14:50:02;;;;;;;1.60;1.50;;;18.90;44.90;;;;;;222567;1268;25271;-58
2023/12/03 14:55:06;;;;;;;1.30;1.20;;;19.40;44.20;;;;;;222718;1265;24222;-57
2023/12/03 15:00:14;;;;;;;1.50;1.40;;;19.90;43.50;;;;;;222691;1268;24216;-55
2023/12/03 15:05:18;;;;;;;1.50;1.40;;;20.20;42.80;;;;;;222955;1254;22551;-58
2023/12/03 15:10:23;;;;;;;1.60;1.50;;;20.30;42.80;;;;;;222661;1266;25278;-57
2023/12/03 15:15:28;;;;;;;1.50;1.40;;;20.20;42.80;;;;;;222541;1268;25265;-57
2023/12/03 15:20:33;;;;;;;1.70;1.60;;;20.10;43.10;;;;;;222617;1263;23143;-58
2023/12/03 15:25:38;;;;;;;1.90;1.80;;;19.80;43.40;;;;;;223045;1260;22640;-57
2023/12/03 15:30:44;;;;;;;1.70;1.60;;;19.80;43.90;;;;;;222603;1253;25337;-56
2023/12/03 15:35:48;;;;;;;2.40;1.70;;;19.80;43.50;;;;;;222756;1268;24368;-56
2023/12/03 15:40:54;;;;;;;1.40;1.30;;;19.60;43.90;;;;;;222467;1264;24232;-56
2023/12/03 15:45:58;;;;;;;1.50;1.40;;;19.60;44.00;;;;;;222511;1268;22528;-57
2023/12/03 15:51:06;;;;;;;1.40;1.30;;;19.40;44.30;;;;;;222562;1253;22523;-59
2023/12/03 15:56:11;;;;;;;1.90;1.80;;;19.40;44.20;;;;;;222807;1264;24986;-57
2023/12/03 16:01:15;;;;;;;2.00;1.80;;;19.40;44.40;;;;;;222419;1267;22514;-58
2023/12/03 16:06:20;;;;;;;1.60;1.50;;;19.50;44.50;;;;;;222735;1267;22540;-58
2023/12/03 16:11:25;;;;;;;1.70;1.60;;;19.40;44.10;;;;;;222265;1268;24311;-57
2023/12/03 16:16:30;;;;;;;1.60;1.50;;;19.30;44.30;;;;;;222521;1268;25353;-58
2023/12/03 16:21:34;;;;;;;1.50;1.40;;;19.10;44.50;;;;;;222463;1267;23469;-57
2023/12/03 16:26:40;;;;;;;1.90;1.80;;;19.10;44.50;;;;;;222548;1263;22517;-57
2023/12/03 16:31:45;;;;;;;2.20;2.10;;;19.10;44.90;;;;;;222365;1268;22844;-58
2023/12/03 16:36:49;;;;;;;1.90;1.80;;;19.00;44.80;;;;;;222891;1257;22707;-57
2023/12/03 16:41:55;;;;;;;1.90;1.80;;;19.10;44.60;;;;;;222283;1266;23415;-58
2023/12/03 16:47:00;;;;;;;1.80;1.70;;;19.60;43.90;;;;;;222460;1266;22545;-58
2023/12/03 16:52:05;;;;;;;1.90;1.80;;;20.00;43.10;;;;;;222508;1259;22521;-58
2023/12/03 16:57:12;;;;;;;1.70;1.60;;;20.30;43.30;;;;;;222423;1266;22626;-57
2023/12/03 17:02:16;;;;;;;1.70;1.60;;;20.40;42.40;;;;;;222290;1269;23014;-58
2023/12/03 17:07:21;;;;;;;1.80;1.60;;;20.10;42.80;;;;;;222455;1258;24186;-58
2023/12/03 17:12:25;;;;;;;1.70;1.60;;;20.00;43.10;;;;;;222880;1263;24238;-58
2023/12/03 17:17:30;;;;;;;1.70;1.60;;;19.80;43.30;;;;;;222944;1264;22685;-57
2023/12/03 17:22:35;;;;;;;2.50;1.90;;;19.70;43.70;;;;;;222103;1269;23940;-58
2023/12/03 17:27:40;;;;;;;1.80;1.70;;;19.60;43.90;;;;;;222114;1269;22647;-57
2023/12/03 17:32:46;;;;;;;1.80;1.70;;;19.60;43.90;;;;;;222256;1266;25702;-57
2023/12/03 17:37:52;;;;;;;1.90;1.80;;;19.40;44.10;;;;;;222246;1266;24234;-57
2023/12/03 17:42:57;;;;;;;2.10;1.90;;;19.50;44.00;;;;;;222116;1259;26078;-58
2023/12/03 17:48:03;;;;;;;2.80;1.80;;;19.50;44.00;;;;;;222127;1257;22545;-57
2023/12/03 17:53:10;;;;;;;2.30;2.10;;;19.50;44.80;;;;;;222487;1247;24295;-59
2023/12/03 17:58:16;;;;;;;2.00;1.90;;;19.50;44.10;;;;;;223008;1265;22513;-58
2023/12/03 18:03:22;;;;;;;2.30;2.10;;;19.40;44.00;;;;;;222954;1263;24264;-56
2023/12/03 18:08:28;;;;;;;2.00;1.90;;;19.40;44.20;;;;;;222921;1265;22538;-58
2023/12/03 18:13:37;;;;;;;2.10;1.90;;;19.30;44.60;;;;;;222984;1268;22523;-56
2023/12/03 18:18:43;;;;;;;2.00;1.90;;;19.30;44.50;;;;;;222171;1268;472777;-58
2023/12/03 18:23:50;;;;;;;2.00;1.80;;;19.10;44.40;;;;;;222829;1266;24326;-56
2023/12/03 18:28:56;;;;;;;2.30;2.10;;;19.00;44.60;;;;;;222753;1268;22511;-58
2023/12/03 18:34:03;;;;;;;1.90;1.80;;;19.00;44.70;;;;;;222994;1267;23977;-61
2023/12/03 18:39:11;;;;;;;2.40;2.20;;;18.90;44.70;;;;;;222875;1268;25459;-57
2023/12/03 18:44:20;;;;;;;1.70;1.60;;;19.20;44.50;;;;;;222836;1268;24357;-52
2023/12/03 18:49:26;;;;;;;1.70;1.60;;;19.70;43.70;;;;;;222856;1259;22597;-56
2023/12/03 18:54:47;;;;;;;2.70;2.40;;;20.10;42.50;;;;;;222696;1268;24339;-58
2023/12/03 18:59:54;;;;;;;2.20;2.10;;;20.30;42.60;;;;;;223112;1263;24263;-58
2023/12/03 19:05:00;;;;;;;2.50;2.30;;;20.20;42.50;;;;;;222432;1261;24314;-57
2023/12/03 19:10:06;;;;;;;2.30;2.20;;;20.10;42.90;;;;;;222577;1263;22633;-61
2023/12/03 19:15:13;;;;;;;3.30;2.10;;;19.90;43.10;;;;;;222985;1267;22623;-55
2023/12/03 19:20:20;;;;;;;2.70;2.50;;;19.70;43.50;;;;;;222633;1268;24205;-58
2023/12/03 19:25:26;;;;;;;2.30;2.20;;;19.60;43.70;;;;;;222872;1265;22603;-57
2023/12/03 19:30:32;;;;;;;3.00;2.70;;;19.60;43.80;;;;;;222831;1266;25278;-57
2023/12/03 19:35:38;;;;;;;2.90;2.70;;;19.50;44.00;;;;;;222861;1260;22517;-57
2023/12/03 19:40:46;;;;;;;2.30;2.10;;;19.40;44.60;;;;;;222501;1262;22526;-57
2023/12/03 19:45:54;;;;;;;2.40;2.20;;;19.50;44.00;;;;;;222650;1260;24241;-57
2023/12/03 19:50:59;;;;;;;2.70;2.40;;;19.50;43.90;;;;;;222943;1267;22771;-58
2023/12/03 19:56:05;;;;;;;3.00;2.70;;;19.40;44.00;;;;;;223209;1256;24271;-56
2023/12/03 20:01:13;;;;;;;2.40;2.20;;;19.40;44.10;;;;;;223038;1264;22526;-59
2023/12/03 20:06:19;;;;;;;2.80;2.60;;;19.40;44.10;;;;;;223031;1268;22633;-58
2023/12/03 20:11:25;;;;;;;2.60;2.40;;;19.30;44.10;;;;;;223009;1256;25458;-58
2023/12/03 20:16:31;;;;;;;2.70;2.50;;;19.20;44.10;;;;;;222920;1264;24212;-58
2023/12/03 20:21:39;;;;;;;2.90;2.70;;;19.20;44.20;;;;;;222823;1268;24340;-58
2023/12/03 20:26:45;;;;;;;2.80;2.60;;;19.10;44.20;;;;;;222675;1269;23883;-56
2023/12/03 20:31:50;;;;;;;4.00;2.30;;;19.00;44.50;;;;;;222509;1261;22749;-58
2023/12/03 20:36:56;;;;;;;2.50;2.40;;;19.40;43.90;;;;;;222415;1258;22571;-58
2023/12/03 20:42:01;;;;;;;2.80;2.40;;;19.90;43.40;;;;;;222475;1268;22525;-58
2023/12/03 20:47:07;;;;;;;2.70;2.50;;;20.30;42.90;;;;;;223011;1268;22510;-57
2023/12/03 20:52:14;;;;;;;3.40;3.10;;;20.40;41.80;;;;;;222988;1265;22767;-58
2023/12/03 20:57:19;;;;;;;2.90;2.60;;;20.20;42.30;;;;;;222626;1259;22562;-57
2023/12/03 21:02:25;;;;;;;2.70;2.50;;;20.00;43.10;;;;;;222918;1265;22533;-58
2023/12/03 21:07:31;;;;;;;3.30;3.00;;;19.90;42.90;;;;;;222700;1247;22518;-58
2023/12/03 21:12:35;;;;;;;2.70;2.50;;;19.80;43.30;;;;;;222434;1253;22538;-57
2023/12/03 21:17:40;;;;;;;2.70;2.50;;;19.60;44.10;;;;;;222316;1260;22517;-59
2023/12/03 21:22:44;;;;;;;3.20;2.90;;;19.60;44.20;;;;;;222748;1266;23964;-57
2023/12/03 21:27:49;;;;;;;2.80;2.50;;;19.50;43.80;;;;;;222550;1268;22520;-60
2023/12/03 21:32:54;;;;;;;2.40;2.30;;;19.60;43.80;;;;;;222732;1267;25429;-59
2023/12/03 21:38:05;;;;;;;3.30;3.00;;;19.50;43.80;;;;;;222943;1254;25354;-56
2023/12/03 21:43:11;;;;;;;3.40;3.10;;;19.40;43.90;;;;;;222734;1268;23667;-58
2023/12/03 21:48:15;;;;;;;2.80;2.60;;;19.40;44.00;;;;;;222271;1268;22525;-57
2023/12/03 21:53:20;;;;;;;3.00;2.80;;;19.50;43.80;;;;;;222860;1254;22501;-61
2023/12/03 21:58:24;;;;;;;3.50;3.20;;;19.80;43.10;;;;;;222436;1244;22515;-61
2023/12/03 22:03:28;;;;;;;3.80;3.40;;;20.20;42.30;;;;;;222521;1267;25392;-57
2023/12/03 22:08:33;;;;;;;3.50;3.20;;;20.60;41.80;;;;;;223051;1254;22514;-57
2023/12/03 22:13:37;;;;;;;3.30;3.00;;;20.70;41.70;;;;;;222961;1268;23525;-59
2023/12/03 22:18:42;;;;;;;3.30;3.00;;;20.60;41.80;;;;;;222519;1268;22514;-58
2023/12/03 22:23:46;;;;;;;3.40;3.10;;;20.50;42.40;;;;;;222648;1269;25275;-56
2023/12/03 22:28:53;;;;;;;3.60;3.30;;;20.30;42.40;;;;;;222593;1268;25271;-57
2023/12/03 22:33:59;;;;;;;3.10;2.80;;;20.20;42.70;;;;;;222495;1266;22557;-56
2023/12/03 22:39:05;;;;;;;3.90;3.10;;;20.10;42.80;;;;;;222869;1254;25322;-57
2023/12/03 22:44:10;;;;;;;3.20;2.90;;;20.00;42.90;;;;;;222643;1263;22515;-57
2023/12/03 22:49:17;;;;;;;3.00;2.70;;;19.90;43.20;;;;;;222391;1267;24292;-57
2023/12/03 22:54:21;;;;;;;3.80;3.50;;;19.80;43.20;;;;;;223026;1268;22770;-57
2023/12/03 22:59:26;;;;;;;4.00;3.60;;;19.70;43.30;;;;;;222514;1260;22694;-58
2023/12/03 23:04:31;;;;;;;4.40;3.70;;;19.80;43.40;;;;;;222610;1267;24189;-58
2023/12/03 23:09:35;;;;;;;3.80;3.40;;;19.70;43.30;;;;;;222513;1266;24199;-57
2023/12/03 23:14:40;;;;;;;3.50;3.20;;;19.60;43.40;;;;;;222671;1268;22766;-58
2023/12/03 23:19:45;;;;;;;3.70;3.40;;;19.60;43.40;;;;;;222584;1259;23167;-56
2023/12/03 23:24:50;;;;;;;4.20;3.80;;;19.40;43.50;;;;;;222621;1269;23353;-58
2023/12/03 23:29:54;;;;;;;3.70;3.40;;;19.60;44.00;;;;;;222456;1264;22517;-57
2023/12/03 23:35:00;;;;;;;4.50;4.10;;;20.10;42.60;;;;;;222374;1266;22517;-59
2023/12/03 23:40:05;;;;;;;3.90;3.60;;;20.50;42.40;;;;;;222458;1263;24266;-57
2023/12/03 23:45:09;;;;;;;4.30;3.90;;;20.80;41.50;;;;;;222248;1269;22500;-57
2023/12/03 23:50:14;;;;;;;4.30;3.90;;;20.70;41.40;;;;;;222487;1266;25336;-55
2023/12/03 23:55:19;;;;;;;4.00;3.50;;;20.60;41.60;;;;;;222440;1268;22514;-57
